Time;durP1;ratioP1;P1;durP2;ratioP2;P2;SDS_P1;SDS_P2;PMS_P1;PMS_P2;Temp;Humidity;BMP_temperature;BMP_pressure;BME280_temperature;BME280_humidity;BME280_pressure;Samples;Min_cycle;Max_cycle;Signal;HPM_P1;HPM_P2
2022/08/15 00:01:30;;;;;;;9.07;6.87;;;;;;;20.11;100.00;100723.53;4994895;28;20808;-42
2022/08/15 00:04:01;;;;;;;8.27;7.47;;;;;;;20.08;100.00;100722.16;4994690;28;20437;-43
2022/08/15 00:06:34;;;;;;;7.93;7.30;;;;;;;20.02;100.00;100717.78;4995406;28;20559;-43
2022/08/15 00:09:10;;;;;;;12.10;7.30;;;;;;;20.00;100.00;100713.72;4995102;28;20440;-44
2022/08/15 00:11:43;;;;;;;8.30;7.40;;;;;;;19.99;100.00;100715.59;4994283;28;21065;-42
2022/08/15 00:14:16;;;;;;;8.33;7.53;;;;;;;19.93;100.00;100707.69;4995061;28;20448;-42
2022/08/15 00:16:58;;;;;;;8.50;7.60;;;;;;;19.89;100.00;100702.00;4994723;28;20464;-44
2022/08/15 00:19:30;;;;;;;7.80;7.10;;;;;;;19.86;100.00;100707.94;4994394;28;20438;-45
2022/08/15 00:22:01;;;;;;;10.77;7.37;;;;;;;19.78;100.00;100702.97;4994385;28;20465;-43
2022/08/15 00:24:32;;;;;;;8.73;7.93;;;;;;;19.78;100.00;100705.69;4994710;28;20476;-44
2022/08/15 00:27:07;;;;;;;9.87;8.77;;;;;;;19.77;100.00;100701.34;4994391;28;20479;-42
2022/08/15 00:29:37;;;;;;;10.80;8.73;;;;;;;19.77;100.00;100695.94;4994499;28;20435;-43
2022/08/15 00:32:09;;;;;;;11.97;7.73;;;;;;;19.75;100.00;100693.47;4994433;28;20484;-42
2022/08/15 00:34:56;;;;;;;10.27;7.87;;;;;;;19.75;100.00;100687.25;4998533;28;20430;-42
2022/08/15 00:37:24;;;;;;;9.00;8.10;;;;;;;19.74;100.00;100694.53;4998426;28;20459;-42
2022/08/15 00:39:52;;;;;;;16.13;8.50;;;;;;;19.72;100.00;100691.28;4997731;28;20968;-44
2022/08/15 00:42:25;;;;;;;18.50;9.00;;;;;;;19.70;100.00;100685.34;4997790;28;20675;-42
2022/08/15 00:44:57;;;;;;;10.13;8.23;;;;;;;19.70;100.00;100687.22;4998419;28;20457;-42
2022/08/15 00:47:41;;;;;;;9.73;8.40;;;;;;;19.68;100.00;100687.47;4997748;28;20912;-42
2022/08/15 00:50:11;;;;;;;9.60;8.80;;;;;;;19.64;100.00;100678.25;4998244;28;20428;-42
2022/08/15 00:53:01;;;;;;;10.43;9.43;;;;;;;19.63;100.00;100673.06;4997666;28;20461;-42
2022/08/15 00:55:30;;;;;;;16.70;8.10;;;;;;;19.63;100.00;100667.66;4997775;28;20927;-43
2022/08/15 00:58:01;;;;;;;9.27;8.37;;;;;;;19.60;100.00;100671.72;4998157;28;20437;-42
2022/08/15 01:00:34;;;;;;;8.70;7.90;;;;;;;19.58;100.00;100663.03;4997774;28;20496;-42
2022/08/15 01:03:15;;;;;;;11.73;9.47;;;;;;;19.56;100.00;100670.56;4997298;28;20835;-43
2022/08/15 01:05:44;;;;;;;12.50;9.00;;;;;;;19.55;100.00;100658.16;4997802;28;20442;-43
2022/08/15 01:08:16;;;;;;;10.90;9.73;;;;;;;19.54;100.00;100658.38;4997693;28;20483;-44
2022/08/15 01:10:55;;;;;;;9.73;8.90;;;;;;;19.53;100.00;100656.78;4997210;28;20461;-42
2022/08/15 01:13:34;;;;;;;10.93;8.77;;;;;;;19.50;100.00;100652.72;4997082;28;20476;-43
2022/08/15 01:16:25;;;;;;;9.43;8.50;;;;;;;19.49;100.00;100655.66;4997683;28;20454;-42
2022/08/15 01:19:03;;;;;;;11.03;8.40;;;;;;;19.48;100.00;100656.72;4997705;28;20426;-42
2022/08/15 01:21:39;;;;;;;12.33;8.47;;;;;;;19.49;100.00;100664.59;4997207;28;20532;-45
2022/08/15 01:24:19;;;;;;;13.50;8.77;;;;;;;19.47;100.00;100657.81;4996851;28;20524;-43
2022/08/15 01:26:53;;;;;;;10.13;9.23;;;;;;;19.45;100.00;100657.22;4997453;28;20464;-43
2022/08/15 01:29:21;;;;;;;10.10;9.30;;;;;;;19.46;100.00;100651.56;4997175;28;20483;-42
2022/08/15 01:31:51;;;;;;;10.27;8.93;;;;;;;19.45;100.00;100644.53;4996971;28;20480;-42
2022/08/15 01:34:18;;;;;;;10.30;9.30;;;;;;;19.44;100.00;100637.50;4997089;28;20804;-42
2022/08/15 01:36:48;;;;;;;10.07;9.20;;;;;;;19.43;100.00;100635.03;4997144;28;20491;-45
2022/08/15 01:39:24;;;;;;;9.87;9.03;;;;;;;19.42;100.00;100639.63;4997349;28;20452;-42
2022/08/15 01:41:58;;;;;;;11.30;9.50;;;;;;;19.40;100.00;100632.84;4996764;28;20473;-41
2022/08/15 01:44:32;;;;;;;9.93;9.10;;;;;;;19.40;100.00;100632.84;4995843;28;20436;-46
2022/08/15 01:47:14;;;;;;;10.17;9.27;;;;;;;19.36;100.00;100629.81;4996858;28;20469;-42
2022/08/15 01:49:50;;;;;;;10.80;9.90;;;;;;;19.35;100.00;100625.50;4996747;28;20935;-43
2022/08/15 01:52:32;;;;;;;10.77;9.80;;;;;;;19.34;100.00;100626.56;4996044;28;20461;-43
2022/08/15 01:55:26;;;;;;;11.27;9.93;;;;;;;19.34;100.00;100621.16;4996907;28;20434;-42
2022/08/15 01:58:05;;;;;;;13.57;9.93;;;;;;;19.33;100.00;100619.50;4996506;28;20998;-45
2022/08/15 02:00:35;;;;;;;11.10;10.20;;;;;;;19.34;100.00;100615.75;4996883;28;20516;-46
2022/08/15 02:03:09;;;;;;;13.03;11.00;;;;;;;19.31;100.00;100603.56;4995731;28;20468;-43
2022/08/15 02:05:39;;;;;;;12.33;10.60;;;;;;;19.33;100.00;100619.50;4995706;28;20496;-43
2022/08/15 02:08:07;;;;;;;13.40;12.40;;;;;;;19.32;100.00;100612.50;4996257;28;20477;-42
2022/08/15 02:10:55;;;;;;;16.07;14.43;;;;;;;19.32;100.00;100613.28;4995318;28;20441;-42
2022/08/15 02:13:24;;;;;;;15.00;13.70;;;;;;;19.34;100.00;100613.84;4995933;28;20433;-42
2022/08/15 02:15:53;;;;;;;17.53;13.20;;;;;;;19.33;100.00;100614.09;4995543;28;20947;-43
2022/08/15 02:18:20;;;;;;;14.60;13.40;;;;;;;19.34;100.00;100613.84;4995813;28;20433;-44
2022/08/15 02:20:48;;;;;;;16.43;12.93;;;;;;;19.34;100.00;100615.75;4996107;28;20437;-42
2022/08/15 02:23:18;;;;;;;16.40;14.77;;;;;;;19.33;100.00;100606.81;4995357;28;20456;-43
2022/08/15 02:25:47;;;;;;;20.90;17.00;;;;;;;19.33;99.67;100601.41;4995850;28;20440;-42
2022/08/15 02:28:16;;;;;;;21.80;17.63;;;;;;;19.31;97.86;100594.63;4995492;28;20962;-43
2022/08/15 02:31:08;;;;;;;18.47;16.60;;;;;;;19.33;97.84;100598.69;4995474;28;20433;-44
2022/08/15 02:33:38;;;;;;;21.50;19.43;;;;;;;19.33;97.73;100603.28;4995248;28;20997;-42
2022/08/15 02:36:10;;;;;;;21.50;19.20;;;;;;;19.33;96.45;100604.09;4995826;28;21023;-42
2022/08/15 02:38:39;;;;;;;29.60;21.90;;;;;;;19.36;97.30;100600.06;4995762;28;20426;-43
2022/08/15 02:41:19;;;;;;;26.47;23.33;;;;;;;19.34;97.09;100586.81;4995005;28;20993;-42
2022/08/15 02:43:47;;;;;;;30.20;27.10;;;;;;;19.34;96.03;100592.22;4995752;28;20418;-45
2022/08/15 02:46:20;;;;;;;27.93;25.07;;;;;;;19.37;96.20;100588.19;4995501;28;20469;-44
2022/08/15 02:48:58;;;;;;;31.20;28.17;;;;;;;19.38;96.44;100595.22;4995251;28;21005;-42
2022/08/15 02:51:27;;;;;;;29.57;26.87;;;;;;;19.40;95.62;100593.09;4994802;28;20464;-43
2022/08/15 02:53:59;;;;;;;31.23;27.37;;;;;;;19.44;95.58;100593.41;4994832;28;20433;-43
2022/08/15 02:56:47;;;;;;;29.87;26.87;;;;;;;19.48;95.48;100591.81;4995269;28;20453;-44
2022/08/15 02:59:14;;;;;;;29.20;26.07;;;;;;;19.48;94.69;100592.63;4994897;28;20430;-43
2022/08/15 03:01:44;;;;;;;26.77;24.37;;;;;;;19.49;94.63;100591.56;4994158;28;20460;-43
2022/08/15 03:04:16;;;;;;;24.60;22.10;;;;;;;19.51;94.25;100591.28;4994815;28;20521;-44
2022/08/15 03:06:56;;;;;;;25.10;22.60;;;;;;;19.53;94.25;100578.34;4994846;28;20461;-42
2022/08/15 03:09:26;;;;;;;23.90;21.43;;;;;;;19.53;94.91;100587.28;4994815;28;20840;-45
2022/08/15 03:11:59;;;;;;;23.23;19.83;;;;;;;19.55;95.44;100585.13;4994465;28;20827;-43
2022/08/15 03:14:36;;;;;;;20.60;18.60;;;;;;;19.58;96.13;100581.06;4994981;28;20438;-43
2022/08/15 03:17:07;;;;;;;21.00;18.93;;;;;;;19.57;97.02;100582.97;4994473;28;20467;-42
2022/08/15 03:19:37;;;;;;;21.40;19.40;;;;;;;19.56;97.86;100578.59;4994851;28;20553;-42
2022/08/15 03:22:07;;;;;;;21.17;18.80;;;;;;;19.54;97.61;100580.78;4994189;28;20465;-43
2022/08/15 03:24:36;;;;;;;20.70;18.53;;;;;;;19.57;97.46;100576.72;4994641;28;20524;-43
2022/08/15 03:27:04;;;;;;;23.10;19.00;;;;;;;19.56;97.17;100583.22;4994127;28;20553;-44
2022/08/15 03:29:32;;;;;;;19.87;17.73;;;;;;;19.58;97.26;100583.78;4994411;28;20477;-44
2022/08/15 03:32:11;;;;;;;23.90;19.00;;;;;;;19.58;96.43;100571.06;4994158;28;20492;-44
2022/08/15 03:35:01;;;;;;;20.97;18.97;;;;;;;19.59;96.05;100578.09;4994491;28;20426;-42
2022/08/15 03:37:29;;;;;;;21.10;18.23;;;;;;;19.61;96.04;100585.97;4994016;28;20501;-43
2022/08/15 03:39:57;;;;;;;20.33;18.20;;;;;;;19.62;95.76;100588.41;4994096;28;20436;-43
2022/08/15 03:42:27;;;;;;;20.83;18.63;;;;;;;19.62;96.05;100582.97;4993528;28;20493;-42
2022/08/15 03:45:05;;;;;;;19.40;17.60;;;;;;;19.65;96.06;100584.38;4994078;28;20849;-42
2022/08/15 03:47:35;;;;;;;20.20;18.20;;;;;;;19.66;96.72;100578.69;4993916;28;20841;-43
2022/08/15 03:50:04;;;;;;;20.93;18.80;;;;;;;19.69;96.61;100583.59;4993506;28;20530;-42
2022/08/15 03:52:55;;;;;;;21.53;19.23;;;;;;;19.65;97.17;100579.75;4992853;28;20481;-43
2022/08/15 03:55:26;;;;;;;20.23;18.53;;;;;;;19.73;97.21;100579.28;4993963;28;20434;-42
2022/08/15 03:57:55;;;;;;;19.40;17.67;;;;;;;19.74;97.97;100590.94;4993222;28;20449;-46
2022/08/15 04:00:33;;;;;;;20.60;18.80;;;;;;;19.78;98.78;100594.75;4993565;28;20927;-44
2022/08/15 04:03:08;;;;;;;23.17;20.87;;;;;;;19.80;98.78;100587.97;4992751;28;20473;-42
2022/08/15 04:05:36;;;;;;;24.10;22.10;;;;;;;19.80;99.49;100584.50;4993630;28;20427;-42
2022/08/15 04:08:10;;;;;;;22.90;20.50;;;;;;;19.84;99.66;100582.88;4993274;28;20444;-43
2022/08/15 04:11:01;;;;;;;22.17;19.97;;;;;;;19.84;99.78;100591.81;4993072;28;20764;-43
2022/08/15 04:13:29;;;;;;;22.10;19.13;;;;;;;19.85;100.00;100588.03;4993605;28;20487;-42
2022/08/15 04:16:00;;;;;;;21.93;19.93;;;;;;;19.89;100.00;100593.75;4993551;28;21104;-41
2022/08/15 04:18:49;;;;;;;23.50;21.17;;;;;;;19.92;100.00;100592.41;4993427;28;20452;-43
2022/08/15 04:21:17;;;;;;;22.77;20.73;;;;;;;19.92;100.00;100587.81;4993288;28;20471;-46
2022/08/15 04:23:46;;;;;;;24.27;21.87;;;;;;;19.93;100.00;100589.41;4993417;28;20444;-42
2022/08/15 04:26:18;;;;;;;23.83;21.57;;;;;;;19.96;100.00;100586.19;4993360;28;20979;-44
2022/08/15 04:28:53;;;;;;;24.47;21.90;;;;;;;19.98;100.00;100570.50;4993576;28;20480;-44
2022/08/15 04:31:23;;;;;;;24.97;22.40;;;;;;;20.02;100.00;100577.03;4993159;28;20480;-43
2022/08/15 04:33:52;;;;;;;25.07;22.67;;;;;;;20.03;100.00;100575.97;4993064;28;20440;-43
2022/08/15 04:36:39;;;;;;;24.73;22.30;;;;;;;20.10;100.00;100573.03;4993968;28;20449;-42
2022/08/15 04:39:08;;;;;;;27.93;21.03;;;;;;;20.16;100.00;100571.97;4993175;28;20425;-44
2022/08/15 04:41:39;;;;;;;24.27;21.77;;;;;;;20.20;100.00;100573.06;4992592;28;20500;-44
2022/08/15 04:44:17;;;;;;;23.90;21.50;;;;;;;20.20;100.00;100570.34;4992978;28;20516;-42
2022/08/15 04:46:45;;;;;;;21.27;19.40;;;;;;;20.23;100.00;100567.94;4992777;28;20473;-43
2022/08/15 04:49:14;;;;;;;21.30;19.30;;;;;;;20.28;100.00;100570.69;4993102;28;20560;-43
2022/08/15 04:51:43;;;;;;;21.70;19.50;;;;;;;20.31;100.00;100563.91;4992891;28;20465;-43
2022/08/15 04:54:11;;;;;;;20.40;18.40;;;;;;;20.35;100.00;100565.84;4993260;28;20503;-45
2022/08/15 04:56:42;;;;;;;20.60;18.60;;;;;;;20.45;100.00;100570.50;4993239;28;20512;-43
2022/08/15 04:59:18;;;;;;;20.93;19.10;;;;;;;20.54;100.00;100573.50;4993545;28;20512;-43
2022/08/15 05:02:03;;;;;;;19.33;17.33;;;;;;;20.66;100.00;100569.47;4992201;28;20465;-45
2022/08/15 05:04:52;;;;;;;21.00;19.07;;;;;;;20.76;100.00;100568.66;4992075;28;20433;-46
2022/08/15 05:07:21;;;;;;;19.33;17.60;;;;;;;20.90;100.00;100567.09;4991731;28;20896;-46
2022/08/15 05:09:55;;;;;;;20.90;18.47;;;;;;;20.99;100.00;100562.78;4991960;28;20556;-45
2022/08/15 05:12:28;;;;;;;21.30;19.10;;;;;;;21.26;100.00;100565.25;4991283;28;20821;-45
2022/08/15 05:15:01;;;;;;;21.73;17.97;;;;;;;21.28;100.00;100572.03;4991994;28;20430;-47
2022/08/15 05:17:30;;;;;;;20.20;18.30;;;;;;;21.33;100.00;100561.19;4991612;28;20462;-45
2022/08/15 05:20:21;;;;;;;26.70;19.13;;;;;;;21.91;100.00;100558.97;4994407;28;20429;-44
2022/08/15 05:22:55;;;;;;;19.10;17.40;;;;;;;22.30;100.00;100557.22;4994522;28;20591;-46
2022/08/15 05:25:28;;;;;;;18.73;17.07;;;;;;;22.94;100.00;100550.88;4995219;28;20433;-50
2022/08/15 05:27:55;;;;;;;17.70;16.10;;;;;;;23.13;100.00;100540.97;4994987;28;20441;-45
2022/08/15 05:30:24;;;;;;;17.97;16.07;;;;;;;23.63;100.00;100540.53;4995297;28;20481;-45
2022/08/15 05:33:05;;;;;;;16.60;15.13;;;;;;;24.22;96.50;100531.97;4994511;28;20461;-45
2022/08/15 05:35:42;;;;;;;18.80;16.47;;;;;;;24.86;93.03;100529.78;4994931;28;20487;-47
2022/08/15 05:38:21;;;;;;;15.03;13.73;;;;;;;25.42;88.96;100535.94;4995026;28;20441;-47
2022/08/15 05:41:16;;;;;;;15.57;14.10;;;;;;;26.12;84.78;100533.81;4994673;28;20456;-49
2022/08/15 05:43:52;;;;;;;15.30;13.77;;;;;;;26.42;79.04;100535.13;4994784;28;20800;-45
2022/08/15 05:46:31;;;;;;;14.03;12.83;;;;;;;26.84;81.00;100534.75;4994924;28;20820;-44
2022/08/15 05:49:02;;;;;;;14.37;12.97;;;;;;;26.93;74.97;100537.56;4995065;28;20420;-46
2022/08/15 05:51:40;;;;;;;14.60;13.10;;;;;;;26.83;74.55;100535.06;4994447;28;20461;-45
2022/08/15 05:54:28;;;;;;;14.47;13.03;;;;;;;26.97;74.74;100535.03;4994574;28;20433;-44
2022/08/15 05:57:05;;;;;;;14.57;10.90;;;;;;;27.20;72.32;100531.16;4994780;28;20461;-48
2022/08/15 05:59:39;;;;;;;12.57;11.57;;;;;;;27.61;72.73;100533.69;4994674;28;20440;-48
2022/08/15 06:02:14;;;;;;;13.17;11.77;;;;;;;27.25;69.42;100537.31;4994147;28;20471;-47
2022/08/15 06:05:08;;;;;;;14.60;13.17;;;;;;;26.76;72.26;100538.19;4994624;28;20434;-48
2022/08/15 06:07:45;;;;;;;13.37;12.43;;;;;;;26.28;73.87;100537.88;4994586;28;20474;-47
2022/08/15 06:10:33;;;;;;;15.57;13.80;;;;;;;26.44;73.24;100540.28;4994566;28;20481;-45
2022/08/15 06:13:10;;;;;;;13.70;12.50;;;;;;;27.16;74.72;100530.16;4993745;28;20465;-44
2022/08/15 06:15:48;;;;;;;13.10;12.10;;;;;;;27.58;70.71;100528.81;4994327;28;20436;-46
2022/08/15 06:18:23;;;;;;;12.27;11.40;;;;;;;27.71;68.48;100533.41;4994544;28;20819;-48
2022/08/15 06:21:02;;;;;;;12.73;11.73;;;;;;;27.80;68.71;100529.59;4993913;28;20819;-46
2022/08/15 06:23:43;;;;;;;12.07;10.90;;;;;;;28.16;68.54;100534.91;4994039;28;20439;-45
2022/08/15 06:26:24;;;;;;;12.50;11.40;;;;;;;28.26;65.49;100522.81;4994028;28;20449;-47
2022/08/15 06:29:34;;;;;;;13.23;12.13;;;;;;;28.73;62.58;100521.16;4994270;28;20848;-46
2022/08/15 06:32:12;;;;;;;13.00;12.07;;;;;;;29.27;61.58;100519.69;4993425;28;20491;-48
2022/08/15 06:35:04;;;;;;;13.00;11.83;;;;;;;29.55;59.06;100523.63;4994176;28;20491;-47
2022/08/15 06:37:44;;;;;;;12.87;11.67;;;;;;;29.52;60.84;100525.09;4994008;28;20218;-47
2022/08/15 06:40:37;;;;;;;13.83;12.63;;;;;;;29.82;61.22;100519.69;4994024;28;20229;-49
2022/08/15 06:43:08;;;;;;;11.07;10.30;;;;;;;29.94;59.45;100519.78;4993151;28;20226;-44
2022/08/15 06:45:39;;;;;;;11.57;10.67;;;;;;;30.18;58.32;100520.00;4993553;28;20199;-46
2022/08/15 06:48:21;;;;;;;10.93;9.93;;;;;;;30.22;54.33;100518.19;4993893;28;20202;-45
2022/08/15 06:51:11;;;;;;;11.87;10.80;;;;;;;30.77;57.29;100514.41;4993008;28;20214;-45
2022/08/15 06:53:45;;;;;;;11.47;10.57;;;;;;;30.47;54.06;100510.91;4993630;28;20194;-45
2022/08/15 06:56:27;;;;;;;9.37;8.60;;;;;;;30.57;56.41;100513.28;4993438;28;20739;-45
2022/08/15 06:59:02;;;;;;;10.30;9.30;;;;;;;31.10;55.89;100515.28;4993550;28;20253;-46
2022/08/15 07:01:45;;;;;;;9.97;8.93;;;;;;;31.32;53.87;100508.56;4992926;28;20297;-44
2022/08/15 07:04:45;;;;;;;9.67;8.77;;;;;;;31.31;51.61;100505.00;4993629;28;20202;-47
2022/08/15 07:07:20;;;;;;;10.47;9.07;;;;;;;30.71;55.69;100498.09;4993147;28;20221;-45
2022/08/15 07:09:55;;;;;;;10.13;9.27;;;;;;;30.86;54.25;100496.69;4993228;28;20208;-47
2022/08/15 07:12:31;;;;;;;8.50;7.90;;;;;;;31.02;54.63;100492.19;4992629;28;20225;-47
2022/08/15 07:15:11;;;;;;;9.13;8.00;;;;;;;31.55;53.92;100485.00;4993306;28;20202;-48
2022/08/15 07:17:47;;;;;;;10.70;8.95;;;;;;;31.41;52.57;100496.31;4993236;28;20767;-46
2022/08/15 07:20:25;;;;;;;12.00;9.93;;;;;;;30.91;54.43;100479.97;4992973;28;20244;-46
2022/08/15 07:23:19;;;;;;;11.32;10.02;;;;;;;30.88;53.57;100474.31;4992255;28;20229;-43
2022/08/15 07:25:49;;;;;;;11.57;10.68;;;;;;;30.95;54.39;100480.91;4993059;28;20203;-45
2022/08/15 07:28:25;;;;;;;14.43;10.03;;;;;;;30.61;53.07;100481.22;4993049;28;20202;-48
2022/08/15 07:31:06;;;;;;;10.07;9.37;;;;;;;30.69;53.60;100474.81;4992920;28;20681;-45
2022/08/15 07:33:39;;;;;;;10.27;9.57;;;;;;;30.48;53.59;100471.25;4992846;28;20202;-47
2022/08/15 07:36:19;;;;;;;10.43;9.63;;;;;;;30.51;54.29;100481.59;4992744;28;20637;-48
2022/08/15 07:38:57;;;;;;;11.07;10.17;;;;;;;29.84;56.39;100487.19;4992760;28;20300;-49
2022/08/15 07:41:27;;;;;;;10.77;9.67;;;;;;;29.76;57.00;100482.50;4991627;28;20218;-48
2022/08/15 07:44:00;;;;;;;10.73;9.93;;;;;;;29.38;57.66;100482.50;4992406;28;20198;-43
2022/08/15 07:46:52;;;;;;;11.83;10.17;;;;;;;29.05;59.16;100485.78;4992486;28;20248;-45
2022/08/15 07:49:25;;;;;;;10.50;9.70;;;;;;;29.03;59.29;100476.25;4992700;28;20197;-45
2022/08/15 07:52:05;;;;;;;10.67;9.97;;;;;;;28.60;61.14;100472.69;4992105;28;20516;-47
2022/08/15 07:54:46;;;;;;;11.00;10.00;;;;;;;28.09;63.42;100478.91;4992430;28;20431;-44
2022/08/15 07:57:25;;;;;;;10.20;9.50;;;;;;;27.95;63.20;100474.34;4992564;28;20462;-47
2022/08/15 08:00:21;;;;;;;10.63;9.73;;;;;;;27.56;64.29;100482.59;4992296;28;20745;-47
2022/08/15 08:03:15;;;;;;;10.53;9.50;;;;;;;27.33;66.47;100470.00;4991872;28;20812;-44
2022/08/15 08:06:06;;;;;;;11.80;11.00;;;;;;;27.31;66.79;100475.81;4992457;28;20480;-46
2022/08/15 08:09:13;;;;;;;12.13;11.07;;;;;;;27.20;67.78;100466.28;4992760;28;20433;-47
2022/08/15 08:11:46;;;;;;;13.20;10.20;;;;;;;27.33;67.41;100470.00;4991987;28;20473;-47
2022/08/15 08:14:24;;;;;;;11.97;11.07;;;;;;;27.59;67.28;100470.19;4992566;28;20433;-48
2022/08/15 08:17:15;;;;;;;11.90;11.00;;;;;;;27.75;64.89;100463.97;4992280;28;21072;-45
2022/08/15 08:19:58;;;;;;;11.97;11.00;;;;;;;28.11;63.35;100479.41;4992530;28;20421;-45
2022/08/15 08:22:36;;;;;;;11.40;10.60;;;;;;;28.30;63.41;100486.22;4991694;28;20839;-47
2022/08/15 08:25:21;;;;;;;12.17;9.70;;;;;;;28.43;62.14;100492.69;4992202;28;20448;-46
2022/08/15 08:28:27;;;;;;;11.20;10.40;;;;;;;28.47;62.29;100474.44;4993252;28;20884;-47
2022/08/15 08:31:02;;;;;;;10.80;9.77;;;;;;;28.50;62.42;100476.56;4993830;28;20453;-47
2022/08/15 08:33:44;;;;;;;11.73;10.83;;;;;;;28.28;64.00;100476.72;4992490;28;20460;-45
2022/08/15 08:36:21;;;;;;;11.70;10.67;;;;;;;28.52;63.36;100477.84;4991961;28;20456;-46
2022/08/15 08:39:20;;;;;;;10.77;9.80;;;;;;;28.63;62.12;100477.53;4992109;28;20954;-44
2022/08/15 08:41:56;;;;;;;12.33;10.30;;;;;;;28.22;63.25;100483.47;4991414;28;20477;-44
2022/08/15 08:44:32;;;;;;;10.37;9.60;;;;;;;28.68;62.37;100483.69;4992080;28;20919;-48
2022/08/15 08:47:18;;;;;;;11.00;10.00;;;;;;;28.56;60.05;100483.50;4991936;28;20559;-45
2022/08/15 08:50:00;;;;;;;12.23;10.97;;;;;;;28.93;60.27;100484.81;4992036;28;20445;-44
2022/08/15 08:52:56;;;;;;;9.80;8.90;;;;;;;29.14;58.61;100484.94;4991292;28;20809;-44
2022/08/15 08:55:29;;;;;;;9.90;8.90;;;;;;;29.23;57.89;100489.31;4995790;28;20428;-44
2022/08/15 08:58:16;;;;;;;9.70;9.00;;;;;;;29.24;56.56;100488.16;4995734;28;20947;-43
2022/08/15 09:01:07;;;;;;;8.60;7.87;;;;;;;29.43;55.83;100485.84;4995428;28;20437;-47
2022/08/15 09:03:41;;;;;;;9.13;8.23;;;;;;;29.49;56.82;100486.47;4995455;28;20440;-44
2022/08/15 09:06:17;;;;;;;9.00;8.17;;;;;;;29.50;57.14;100496.34;4995697;28;20449;-47
2022/08/15 09:09:01;;;;;;;12.57;8.80;;;;;;;29.59;56.77;100486.13;4995372;28;20440;-47
2022/08/15 09:11:34;;;;;;;10.33;8.87;;;;;;;29.46;55.49;100482.44;4995114;28;20481;-45
2022/08/15 09:14:12;;;;;;;9.20;8.60;;;;;;;29.36;58.84;100485.53;4995496;28;20433;-43
2022/08/15 09:17:05;;;;;;;9.30;8.63;;;;;;;29.35;57.94;100485.88;4995409;28;20819;-46
2022/08/15 09:19:59;;;;;;;10.80;9.87;;;;;;;29.09;58.27;100483.19;4995421;28;20437;-44
2022/08/15 09:22:28;;;;;;;10.20;9.17;;;;;;;29.13;58.67;100477.81;4994608;28;20461;-46
2022/08/15 09:24:56;;;;;;;9.93;9.10;;;;;;;28.90;59.71;100482.72;4995210;28;20825;-47
2022/08/15 09:27:42;;;;;;;10.53;9.63;;;;;;;28.89;60.24;100481.91;4995014;28;20564;-43
2022/08/15 09:30:21;;;;;;;9.53;8.83;;;;;;;29.04;59.90;100475.09;4995215;28;20460;-45
2022/08/15 09:33:19;;;;;;;9.83;9.03;;;;;;;29.07;59.50;100472.50;4994129;28;21003;-46
2022/08/15 09:36:03;;;;;;;10.37;9.57;;;;;;;28.89;61.79;100475.59;4994920;28;20520;-44
2022/08/15 09:38:48;;;;;;;11.87;10.10;;;;;;;29.22;59.05;100470.38;4996977;28;20480;-46
2022/08/15 09:41:40;;;;;;;9.20;8.60;;;;;;;29.45;58.36;100460.81;4997536;28;20464;-43
2022/08/15 09:44:51;;;;;;;10.13;8.80;;;;;;;29.70;56.17;100465.38;4998391;28;20797;-42
2022/08/15 09:47:57;;;;;;;10.43;9.20;;;;;;;29.74;57.51;100460.84;4997668;28;20548;-45
2022/08/15 09:50:37;;;;;;;10.30;9.37;;;;;;;29.85;55.85;100458.53;4996658;28;20426;-43
2022/08/15 09:53:23;;;;;;;8.60;8.00;;;;;;;29.86;56.20;100449.16;4996130;28;20531;-42
2022/08/15 09:55:53;;;;;;;9.67;8.87;;;;;;;29.67;56.89;100454.25;4997144;28;20441;-43
2022/08/15 09:58:24;;;;;;;9.50;8.80;;;;;;;29.14;59.71;100457.47;4997179;28;20433;-44
2022/08/15 10:01:03;;;;;;;11.50;9.10;;;;;;;29.43;58.63;100455.63;4996553;28;20426;-43
2022/08/15 10:03:53;;;;;;;16.90;9.87;;;;;;;29.14;59.51;100455.53;4996747;28;20429;-44
2022/08/15 10:06:24;;;;;;;10.00;9.30;;;;;;;29.28;58.58;100447.13;4989338;28;20864;-44
2022/08/15 10:09:29;;;;;;;11.23;10.40;;;;;;;29.11;61.10;100442.47;4996674;28;21102;-45
2022/08/15 10:12:05;;;;;;;10.23;9.43;;;;;;;29.25;58.07;100434.84;4996273;28;20820;-46
2022/08/15 10:14:56;;;;;;;10.40;9.30;;;;;;;29.34;58.72;100441.13;4996940;28;20441;-45
2022/08/15 10:17:37;;;;;;;11.93;9.40;;;;;;;29.29;59.70;100435.00;4996547;28;20453;-43
2022/08/15 10:21:00;;;;;;;10.53;9.70;;;;;;;29.37;58.48;100442.41;4996787;28;20519;-45
2022/08/15 10:23:43;;;;;;;10.77;9.97;;;;;;;29.42;58.48;100437.53;4995724;28;20434;-43
2022/08/15 10:26:28;;;;;;;12.40;10.53;;;;;;;29.51;58.64;100437.53;4996034;28;20464;-44
2022/08/15 10:29:25;;;;;;;10.60;9.70;;;;;;;29.50;58.06;100431.22;4996306;28;20946;-43
2022/08/15 10:31:57;;;;;;;10.70;9.60;;;;;;;29.24;61.60;100426.97;4996226;28;20457;-46
2022/08/15 10:34:55;;;;;;;10.53;9.57;;;;;;;29.88;57.08;100430.38;4996173;28;20438;-42
2022/08/15 10:37:30;;;;;;;10.30;9.30;;;;;;;30.15;56.82;100425.19;4995614;28;20449;-45
2022/08/15 10:40:20;;;;;;;10.00;9.27;;;;;;;30.47;55.35;100428.38;4995896;28;20916;-42
2022/08/15 10:43:04;;;;;;;9.60;8.90;;;;;;;30.22;55.40;100429.38;4995528;28;20488;-43
2022/08/15 10:45:41;;;;;;;10.87;9.97;;;;;;;30.07;56.33;100426.06;4995751;28;20440;-46
2022/08/15 10:48:24;;;;;;;10.37;9.57;;;;;;;29.98;56.26;100419.03;4995517;28;20803;-43
2022/08/15 10:51:25;;;;;;;10.63;9.50;;;;;;;30.51;54.03;100421.06;4994743;28;20453;-47
2022/08/15 10:54:09;;;;;;;9.20;8.50;;;;;;;31.05;51.34;100408.88;4995165;28;20528;-42
2022/08/15 10:56:43;;;;;;;10.30;9.40;;;;;;;31.17;50.44;100419.94;4995280;28;20457;-43
2022/08/15 10:59:35;;;;;;;10.30;9.40;;;;;;;31.36;48.86;100410.31;4995888;28;20444;-45
2022/08/15 11:02:21;;;;;;;12.70;11.43;;;;;;;31.60;46.12;100410.38;4994337;28;20951;-42
2022/08/15 11:05:06;;;;;;;9.80;9.00;;;;;;;31.74;46.14;100408.03;4994885;28;20512;-45
2022/08/15 11:07:41;;;;;;;9.37;8.67;;;;;;;31.88;46.01;100411.25;4994238;28;20454;-45
2022/08/15 11:10:12;;;;;;;11.70;9.90;;;;;;;32.05;44.36;100410.22;4994700;28;20206;-42
2022/08/15 11:12:51;;;;;;;11.57;10.40;;;;;;;31.95;43.50;100408.72;4993952;28;20735;-43
2022/08/15 11:15:25;;;;;;;10.13;9.10;;;;;;;32.13;45.33;100417.56;4994719;28;20202;-47
2022/08/15 11:18:03;;;;;;;12.17;9.80;;;;;;;32.18;44.65;100414.53;4992862;28;20222;-45
2022/08/15 11:20:52;;;;;;;12.40;9.93;;;;;;;31.92;45.83;100419.63;4993217;28;20295;-43
2022/08/15 11:23:32;;;;;;;9.90;9.20;;;;;;;31.77;46.29;100424.72;4992621;28;20214;-41
2022/08/15 11:26:00;;;;;;;11.07;10.20;;;;;;;31.37;47.47;100415.47;4992889;28;20220;-43
2022/08/15 11:28:30;;;;;;;10.40;9.47;;;;;;;31.29;48.62;100407.31;4992793;28;20202;-42
2022/08/15 11:31:20;;;;;;;10.97;10.03;;;;;;;30.90;49.58;100417.78;4992509;28;20692;-44
2022/08/15 11:33:53;;;;;;;12.10;10.90;;;;;;;30.60;50.69;100419.84;4992697;28;20225;-42
2022/08/15 11:36:26;;;;;;;11.80;10.93;;;;;;;30.25;52.92;100426.75;4992772;28;20218;-43
2022/08/15 11:39:01;;;;;;;13.07;10.27;;;;;;;30.34;52.89;100421.19;4992658;28;20205;-43
2022/08/15 11:41:48;;;;;;;11.23;10.10;;;;;;;30.64;51.34;100401.50;4992390;28;20245;-44
2022/08/15 11:44:23;;;;;;;10.53;9.77;;;;;;;30.77;50.79;100409.78;4992604;28;20205;-41
2022/08/15 11:46:51;;;;;;;10.93;10.13;;;;;;;30.81;51.16;100402.47;4992653;28;20469;-43
2022/08/15 11:49:31;;;;;;;12.20;10.37;;;;;;;30.78;51.67;100408.66;4992845;28;20205;-46
2022/08/15 11:52:04;;;;;;;11.07;10.27;;;;;;;30.92;50.30;100398.94;4992345;28;20867;-47
2022/08/15 11:55:11;;;;;;;11.13;10.20;;;;;;;30.84;51.14;100408.13;4992766;28;20437;-44
2022/08/15 11:57:45;;;;;;;13.00;11.00;;;;;;;30.96;50.43;100410.94;4992689;28;20226;-42
2022/08/15 12:00:21;;;;;;;12.20;11.27;;;;;;;30.78;50.53;100408.66;4992882;28;20202;-46
2022/08/15 12:02:56;;;;;;;10.93;10.03;;;;;;;30.74;50.82;100397.53;4991978;28;20297;-47